Time;durP1;ratioP1;P1;durP2;ratioP2;P2;SDS_P1;SDS_P2;PMS_P1;PMS_P2;Temp;Humidity;BMP_temperature;BMP_pressure;BME280_temperature;BME280_humidity;BME280_pressure;Samples;Min_cycle;Max_cycle;Signal;HPM_P1;HPM_P2
2023/07/26 00:01:21;;;;;;;3.40;1.77;;;;;;;15.14;84.22;100703.16;6247732;28;20228;-69
2023/07/26 00:04:42;;;;;;;3.97;1.53;;;;;;;15.04;85.10;100708.75;6283916;28;20548;-69
2023/07/26 00:08:04;;;;;;;2.17;1.40;;;;;;;15.05;85.00;100715.91;6278561;28;20234;-69
2023/07/26 00:11:25;;;;;;;1.80;1.60;;;;;;;15.09;85.20;100711.81;6259648;28;20228;-68
2023/07/26 00:14:48;;;;;;;1.50;1.40;;;;;;;15.19;85.06;100703.50;6280948;28;20240;-70
2023/07/26 00:18:09;;;;;;;1.67;1.30;;;;;;;15.23;85.02;100704.03;6283073;28;20226;-69
2023/07/26 00:21:31;;;;;;;2.07;1.83;;;;;;;15.21;85.06;100713.19;6261879;28;20230;-70
2023/07/26 00:24:53;;;;;;;3.43;1.40;;;;;;;14.88;85.13;100710.59;6272640;28;20527;-69
2023/07/26 00:28:14;;;;;;;4.07;2.07;;;;;;;14.92;86.01;100715.53;6262490;28;20227;-69
2023/07/26 00:31:37;;;;;;;1.97;1.70;;;;;;;14.90;86.09;100714.00;6265389;28;20789;-69
2023/07/26 00:34:58;;;;;;;1.57;1.20;;;;;;;14.77;86.19;100706.34;6267795;28;20486;-70
2023/07/26 00:38:20;;;;;;;1.20;1.10;;;;;;;14.78;87.07;100716.19;6260816;28;20223;-69
2023/07/26 00:41:41;;;;;;;3.67;1.77;;;;;;;14.88;86.99;100719.59;6267557;28;20631;-70
2023/07/26 00:45:02;;;;;;;5.43;2.37;;;;;;;14.70;87.50;100718.06;6281091;28;20235;-70
2023/07/26 00:48:27;;;;;;;2.33;1.50;;;;;;;14.76;87.81;100723.66;6261003;28;20231;-68
2023/07/26 00:51:48;;;;;;;3.60;1.47;;;;;;;14.81;87.63;100728.59;6254741;28;20237;-68
2023/07/26 00:55:10;;;;;;;5.63;1.50;;;;;;;14.61;87.70;100732.59;6281354;28;21744;-69
2023/07/26 00:58:31;;;;;;;2.53;1.47;;;;;;;14.66;87.75;100724.81;6273978;28;20226;-69
2023/07/26 01:01:52;;;;;;;4.43;1.63;;;;;;;14.68;87.71;100737.22;6242909;28;20224;-70
2023/07/26 01:05:15;;;;;;;1.90;0.90;;;;;;;14.72;87.70;100733.16;6272045;28;20238;-69
2023/07/26 01:08:50;;;;;;;1.40;1.30;;;;;;;14.38;87.98;100737.78;6239645;28;20757;-69
2023/07/26 01:12:17;;;;;;;4.00;1.43;;;;;;;14.40;88.48;100742.03;6261768;28;20223;-69
2023/07/26 01:15:42;;;;;;;2.63;1.40;;;;;;;14.28;88.99;100746.06;6267701;28;20313;-68
2023/07/26 01:19:03;;;;;;;2.00;1.40;;;;;;;14.36;88.75;100745.25;6236755;28;20939;-69
2023/07/26 01:22:26;;;;;;;4.80;1.87;;;;;;;14.30;88.74;100745.91;6261420;28;20234;-70
2023/07/26 01:25:47;;;;;;;1.47;1.30;;;;;;;14.23;89.08;100737.53;6258121;28;20243;-69
2023/07/26 01:29:09;;;;;;;2.67;1.40;;;;;;;14.14;89.48;100741.19;6276963;28;20232;-69
2023/07/26 01:32:32;;;;;;;1.53;1.27;;;;;;;14.29;89.42;100742.31;6277609;28;20225;-70
2023/07/26 01:35:54;;;;;;;2.93;1.53;;;;;;;14.12;89.59;100751.38;6269750;28;20254;-69
2023/07/26 01:39:18;;;;;;;1.67;1.47;;;;;;;13.95;89.78;100743.31;6258294;28;20232;-69
2023/07/26 01:42:40;;;;;;;1.43;1.20;;;;;;;14.40;90.02;100749.31;6263773;28;20226;-69
2023/07/26 01:46:02;;;;;;;1.30;1.20;;;;;;;14.39;89.44;100756.59;6268639;28;20277;-70
2023/07/26 01:49:23;;;;;;;3.20;1.60;;;;;;;14.34;89.14;100745.41;6248705;28;20234;-68
2023/07/26 01:52:44;;;;;;;1.90;1.57;;;;;;;14.15;89.37;100742.91;6255987;28;20232;-69
2023/07/26 01:56:07;;;;;;;3.40;1.77;;;;;;;13.98;90.32;100743.84;6252784;28;20223;-69
2023/07/26 01:59:28;;;;;;;2.27;1.80;;;;;;;14.10;90.50;100739.84;6266600;28;20235;-68
2023/07/26 02:02:50;;;;;;;1.30;1.17;;;;;;;14.25;89.98;100753.63;6278984;28;20231;-68
2023/07/26 02:06:11;;;;;;;4.30;1.93;;;;;;;14.26;90.28;100741.78;6274629;28;20224;-69
2023/07/26 02:09:32;;;;;;;1.87;1.00;;;;;;;14.45;90.15;100743.41;6273544;28;20230;-69
2023/07/26 02:12:54;;;;;;;1.53;1.43;;;;;;;14.26;89.80;100733.66;6279893;28;20229;-69
2023/07/26 02:16:16;;;;;;;3.63;1.77;;;;;;;14.10;90.39;100747.13;6264713;28;20539;-69
2023/07/26 02:19:38;;;;;;;14.50;2.13;;;;;;;14.21;90.68;100744.97;6259364;28;20235;-69
2023/07/26 02:23:03;;;;;;;1.77;1.07;;;;;;;14.12;90.58;100754.06;6261302;28;20243;-69
2023/07/26 02:26:24;;;;;;;2.77;2.13;;;;;;;14.00;90.74;100746.38;6255853;28;20238;-69
2023/07/26 02:29:47;;;;;;;2.27;2.07;;;;;;;13.93;91.20;100756.19;6281235;28;20274;-69
2023/07/26 02:33:08;;;;;;;1.50;1.20;;;;;;;13.88;91.72;100750.38;6283576;28;20235;-70
2023/07/26 02:36:31;;;;;;;2.13;1.40;;;;;;;14.06;91.58;100752.00;6254582;28;20252;-70
2023/07/26 02:39:52;;;;;;;2.40;1.60;;;;;;;14.08;91.35;100749.16;6250912;28;20326;-69
2023/07/26 02:43:15;;;;;;;5.97;2.13;;;;;;;14.02;91.61;100737.09;6257325;28;20235;-69
2023/07/26 02:46:37;;;;;;;5.37;1.23;;;;;;;14.10;91.59;100728.16;6258386;28;20236;-69
2023/07/26 02:50:01;;;;;;;1.30;1.20;;;;;;;13.88;92.04;100740.41;6269136;28;20231;-70
2023/07/26 02:53:22;;;;;;;1.70;1.60;;;;;;;13.92;92.29;100736.34;6265216;28;20231;-70
2023/07/26 02:56:44;;;;;;;2.73;1.67;;;;;;;13.85;92.10;100748.84;6265434;28;20556;-69
2023/07/26 03:00:07;;;;;;;1.80;1.70;;;;;;;13.80;92.47;100743.06;6287876;28;20223;-69
2023/07/26 03:03:30;;;;;;;1.73;1.37;;;;;;;13.67;92.85;100742.63;6282158;28;20222;-70
2023/07/26 03:06:52;;;;;;;1.67;1.27;;;;;;;13.94;93.24;100749.75;6239719;28;20219;-70
2023/07/26 03:10:13;;;;;;;1.60;1.50;;;;;;;13.75;92.96;100745.41;6263927;28;20243;-69
2023/07/26 03:13:34;;;;;;;3.67;1.70;;;;;;;14.03;93.27;100754.19;6270916;28;20265;-69
2023/07/26 03:16:56;;;;;;;3.07;1.53;;;;;;;13.85;93.23;100746.13;6233555;28;20234;-69
2023/07/26 03:20:18;;;;;;;2.53;1.67;;;;;;;13.89;93.29;100749.38;6271352;28;20227;-69
2023/07/26 03:23:39;;;;;;;2.87;1.70;;;;;;;13.70;93.55;100752.31;6263319;28;20236;-68
2023/07/26 03:27:01;;;;;;;3.77;1.70;;;;;;;13.88;93.45;100751.25;6271683;28;20307;-69
2023/07/26 03:30:22;;;;;;;1.97;1.87;;;;;;;13.95;93.45;100757.72;6242017;28;20310;-69
2023/07/26 03:33:43;;;;;;;1.47;1.30;;;;;;;13.92;93.69;100762.59;6267810;28;20239;-69
2023/07/26 03:37:07;;;;;;;3.60;2.50;;;;;;;13.81;93.88;100760.19;6260308;28;20286;-68
2023/07/26 03:40:29;;;;;;;3.30;1.90;;;;;;;13.78;94.01;100766.75;6273428;28;20219;-70
2023/07/26 03:43:50;;;;;;;2.90;1.70;;;;;;;13.95;94.15;100771.28;6273053;28;20235;-69
2023/07/26 03:47:11;;;;;;;3.07;1.97;;;;;;;14.11;93.25;100775.94;6273025;28;20231;-68
2023/07/26 03:50:35;;;;;;;5.97;1.97;;;;;;;13.95;93.85;100773.13;6277886;28;20563;-69
2023/07/26 03:53:58;;;;;;;2.80;1.33;;;;;;;14.02;93.31;100775.03;6280162;28;20322;-69
2023/07/26 03:57:19;;;;;;;1.70;1.60;;;;;;;14.05;93.42;100777.44;6269659;28;20215;-69
2023/07/26 04:00:40;;;;;;;4.10;1.73;;;;;;;14.14;93.31;100778.34;6264011;28;20542;-70
2023/07/26 04:04:05;;;;;;;1.47;1.37;;;;;;;13.90;93.42;100789.88;6271658;28;20306;-69
2023/07/26 04:07:27;;;;;;;3.87;1.53;;;;;;;14.21;93.23;100782.94;6273075;28;20321;-69
2023/07/26 04:10:49;;;;;;;2.87;2.23;;;;;;;14.28;92.72;100794.88;6273126;28;20231;-69
2023/07/26 04:14:11;;;;;;;4.87;2.43;;;;;;;14.41;92.49;100794.44;6280605;28;20251;-69
2023/07/26 04:17:32;;;;;;;5.40;2.27;;;;;;;14.39;92.30;100796.47;6266094;28;20321;-69
2023/07/26 04:20:55;;;;;;;1.50;1.40;;;;;;;14.44;91.87;100796.81;6270902;28;20239;-70
2023/07/26 04:24:16;;;;;;;3.43;1.97;;;;;;;13.94;92.58;100793.97;6275229;28;20617;-70
2023/07/26 04:27:38;;;;;;;1.93;1.77;;;;;;;13.96;93.45;100799.22;6247674;28;20700;-68
2023/07/26 04:31:00;;;;;;;3.30;2.00;;;;;;;13.74;93.59;100797.03;6260609;28;20251;-70
2023/07/26 04:34:21;;;;;;;2.13;1.60;;;;;;;14.06;93.70;100787.25;6269848;28;20602;-69
2023/07/26 04:37:43;;;;;;;3.33;2.23;;;;;;;14.03;93.94;100786.72;6256312;28;20239;-70
2023/07/26 04:41:04;;;;;;;1.93;1.63;;;;;;;14.21;93.46;100799.19;6264536;28;20227;-70
2023/07/26 04:44:27;;;;;;;2.07;1.30;;;;;;;14.29;93.50;100812.84;6264477;28;20227;-70
2023/07/26 04:47:49;;;;;;;4.90;2.20;;;;;;;14.72;92.73;100813.72;6256046;28;20680;-71
2023/07/26 04:51:11;;;;;;;4.50;2.13;;;;;;;14.31;92.56;100808.09;6242677;28;20231;-70
2023/07/26 04:54:32;;;;;;;3.87;2.70;;;;;;;14.64;92.83;100810.97;6248303;28;20322;-69
2023/07/26 04:57:53;;;;;;;2.43;1.67;;;;;;;14.94;92.04;100816.66;6251527;28;20969;-69
2023/07/26 05:01:16;;;;;;;12.80;2.20;;;;;;;15.02;91.65;100808.53;6249905;28;20315;-69
2023/07/26 05:04:37;;;;;;;2.13;1.63;;;;;;;14.86;91.68;100813.06;6260366;28;20511;-68
2023/07/26 05:07:59;;;;;;;2.63;1.47;;;;;;;14.81;91.31;100813.56;6260928;28;20243;-67
2023/07/26 05:11:22;;;;;;;4.37;2.70;;;;;;;15.04;90.80;100822.78;6253121;28;20596;-66
2023/07/26 05:14:44;;;;;;;3.50;1.80;;;;;;;14.98;90.83;100819.88;6240337;28;20239;-68
2023/07/26 05:18:07;;;;;;;2.17;1.43;;;;;;;15.05;89.84;100821.78;6253633;28;20750;-66
2023/07/26 05:21:28;;;;;;;5.67;2.00;;;;;;;15.14;89.54;100817.22;6266568;28;20227;-67
2023/07/26 05:24:49;;;;;;;1.30;1.20;;;;;;;15.27;89.97;100820.28;6265964;28;20263;-67
2023/07/26 05:28:11;;;;;;;3.33;2.03;;;;;;;14.63;90.64;100814.69;6247978;28;20256;-67
2023/07/26 05:31:32;;;;;;;2.57;2.13;;;;;;;15.42;89.55;100826.75;6235343;28;20247;-68
2023/07/26 05:34:57;;;;;;;3.70;2.43;;;;;;;15.61;88.67;100833.75;6260285;28;20220;-67
2023/07/26 05:38:19;;;;;;;3.33;1.53;;;;;;;15.02;88.27;100832.97;6261375;28;20231;-67
2023/07/26 05:41:40;;;;;;;4.87;2.67;;;;;;;15.12;88.41;100832.84;6267071;28;20239;-67
2023/07/26 05:45:01;;;;;;;5.37;2.43;;;;;;;15.34;87.93;100840.34;6269649;28;20297;-68
2023/07/26 05:48:22;;;;;;;1.90;1.47;;;;;;;15.68;87.88;100840.22;6264381;28;21417;-67
2023/07/26 05:51:44;;;;;;;5.10;2.13;;;;;;;15.55;86.88;100838.00;6264181;28;26218;-67
2023/07/26 05:55:07;;;;;;;1.93;1.73;;;;;;;15.71;87.64;100846.16;6272433;28;20754;-67
2023/07/26 05:58:28;;;;;;;2.10;1.37;;;;;;;15.81;86.97;100843.28;6275447;28;20227;-67
2023/07/26 06:01:49;;;;;;;3.47;2.13;;;;;;;16.07;85.75;100846.66;6273873;28;20253;-67
2023/07/26 06:05:11;;;;;;;3.60;1.93;;;;;;;16.17;85.47;100851.88;6272837;28;20231;-67
2023/07/26 06:08:34;;;;;;;1.30;1.20;;;;;;;15.44;85.84;100843.78;6259480;28;20231;-67
2023/07/26 06:11:55;;;;;;;3.60;1.27;;;;;;;15.33;87.09;100854.09;6259389;28;20318;-70
2023/07/26 06:15:17;;;;;;;3.77;1.70;;;;;;;15.53;87.69;100853.63;6257669;28;20239;-69
2023/07/26 06:18:38;;;;;;;2.47;1.50;;;;;;;15.04;88.45;100860.78;6272607;28;20516;-70
2023/07/26 06:22:00;;;;;;;8.67;2.27;;;;;;;15.31;88.63;100858.84;6264851;28;20230;-70
2023/07/26 06:25:23;;;;;;;3.10;1.60;;;;;;;15.61;88.38;100863.66;6249963;28;20595;-69
2023/07/26 06:28:44;;;;;;;1.87;1.70;;;;;;;15.68;88.36;100868.25;6262883;28;20247;-70
2023/07/26 06:32:06;;;;;;;3.90;2.37;;;;;;;15.65;87.93;100865.88;6260258;28;20239;-71
2023/07/26 06:35:28;;;;;;;1.77;1.53;;;;;;;15.47;88.04;100862.47;6244264;28;20224;-70
2023/07/26 06:38:49;;;;;;;2.17;1.73;;;;;;;15.85;87.93;100869.94;6260720;28;20237;-70
2023/07/26 06:42:12;;;;;;;2.97;1.77;;;;;;;16.33;86.46;100873.66;6266013;28;20223;-69
2023/07/26 06:45:33;;;;;;;1.37;1.27;;;;;;;15.98;86.49;100878.44;6266549;28;20251;-68
2023/07/26 06:48:55;;;;;;;4.07;2.57;;;;;;;16.10;85.71;100875.38;6253828;28;20227;-69
2023/07/26 06:52:17;;;;;;;3.97;2.13;;;;;;;15.82;86.86;100881.16;6263681;28;20925;-69
2023/07/26 06:55:39;;;;;;;9.00;2.70;;;;;;;15.97;86.29;100879.47;6266168;28;20227;-72
2023/07/26 06:59:08;;;;;;;4.23;2.40;;;;;;;16.47;85.24;100868.34;6262164;28;20258;-71
2023/07/26 07:02:29;;;;;;;3.43;1.60;;;;;;;16.60;83.86;100868.69;6221646;28;20860;-70
2023/07/26 07:05:50;;;;;;;2.30;1.80;;;;;;;16.55;82.85;100881.09;6265761;28;20294;-69
2023/07/26 07:09:12;;;;;;;2.10;1.60;;;;;;;16.34;83.43;100878.91;6258110;28;20256;-69
2023/07/26 07:12:33;;;;;;;1.87;1.77;;;;;;;16.28;84.43;100874.16;6255327;28;20239;-69
2023/07/26 07:15:56;;;;;;;3.10;2.30;;;;;;;16.00;85.10;100880.97;6277229;28;20239;-69
2023/07/26 07:19:17;;;;;;;1.53;1.43;;;;;;;15.86;85.80;100885.25;6272017;28;20230;-69
2023/07/26 07:22:38;;;;;;;2.30;1.93;;;;;;;15.92;85.96;100891.88;6270546;28;20227;-70
2023/07/26 07:26:00;;;;;;;2.03;1.80;;;;;;;16.49;84.78;100890.81;6242820;28;20498;-71
2023/07/26 07:29:21;;;;;;;2.13;1.93;;;;;;;16.84;83.56;100889.50;6248909;28;20231;-68
2023/07/26 07:32:45;;;;;;;4.70;1.47;;;;;;;17.03;82.28;100880.06;6267866;28;20227;-69
2023/07/26 07:36:06;;;;;;;1.73;1.63;;;;;;;16.93;80.83;100891.19;6267293;28;20227;-69
2023/07/26 07:39:29;;;;;;;2.17;1.53;;;;;;;16.58;80.98;100892.47;6270261;28;20219;-69
2023/07/26 07:42:50;;;;;;;3.27;1.67;;;;;;;16.72;80.73;100891.78;6261237;28;20247;-68
2023/07/26 07:46:11;;;;;;;3.63;1.77;;;;;;;16.40;81.58;100894.53;6245355;28;20231;-69
2023/07/26 07:49:34;;;;;;;3.07;1.90;;;;;;;16.65;81.28;100889.91;6268603;28;20310;-68
2023/07/26 07:52:55;;;;;;;2.67;2.47;;;;;;;16.86;80.72;100908.38;6270481;28;21126;-68
2023/07/26 07:56:17;;;;;;;5.20;1.87;;;;;;;17.13;80.12;100886.13;6272505;28;20243;-70
2023/07/26 07:59:38;;;;;;;2.67;1.77;;;;;;;17.47;79.09;100890.22;6255732;28;20223;-69
2023/07/26 08:02:59;;;;;;;1.70;1.57;;;;;;;17.42;78.44;100887.16;6267397;28;20821;-69
2023/07/26 08:06:22;;;;;;;2.63;1.60;;;;;;;17.41;77.83;100879.16;6277902;28;20238;-69
2023/07/26 08:09:44;;;;;;;4.63;1.92;;;;;;;17.41;76.56;100874.56;6273644;28;20251;-69
2023/07/26 08:13:05;;;;;;;2.27;2.03;;;;;;;17.63;75.98;100883.00;6247914;28;20235;-71
2023/07/26 08:16:27;;;;;;;3.28;1.48;;;;;;;18.19;73.92;100879.78;6245281;28;20773;-70
2023/07/26 08:19:48;;;;;;;5.45;1.75;;;;;;;17.95;73.11;100885.44;6286140;28;20235;-70
2023/07/26 08:23:11;;;;;;;1.95;1.27;;;;;;;18.23;72.20;100881.09;6277249;28;20251;-70
2023/07/26 08:26:32;;;;;;;3.13;1.60;;;;;;;18.43;71.18;100868.59;6276454;28;20522;-69
2023/07/26 08:29:54;;;;;;;6.85;2.20;;;;;;;18.23;71.92;100872.91;6271864;28;20240;-72
2023/07/26 08:33:15;;;;;;;5.60;1.65;;;;;;;18.37;71.11;100872.09;6267745;28;20231;-71
2023/07/26 08:36:36;;;;;;;3.30;1.25;;;;;;;18.31;69.35;100876.38;6279030;28;20227;-71
2023/07/26 08:39:58;;;;;;;3.72;1.40;;;;;;;18.19;69.96;100885.25;6272946;28;20243;-72
2023/07/26 08:43:24;;;;;;;3.13;1.58;;;;;;;18.06;69.20;100866.78;6272304;28;20231;-70
2023/07/26 08:46:47;;;;;;;2.05;0.80;;;;;;;17.50;68.25;100876.22;6269021;28;20274;-68
2023/07/26 08:50:08;;;;;;;3.07;1.50;;;;;;;18.09;68.45;100880.03;6249451;28;20216;-71
2023/07/26 08:53:30;;;;;;;1.75;1.38;;;;;;;18.20;68.78;100897.84;6275281;28;20322;-70
2023/07/26 08:56:53;;;;;;;1.25;1.00;;;;;;;17.75;68.07;100890.56;6260441;28;20322;-72
2023/07/26 09:00:15;;;;;;;1.50;1.20;;;;;;;17.94;67.50;100894.66;6278733;28;20223;-72
2023/07/26 09:03:37;;;;;;;1.42;1.08;;;;;;;18.28;66.41;100892.28;6277560;28;20531;-72
2023/07/26 09:07:01;;;;;;;0.90;0.87;;;;;;;18.58;65.59;100877.69;6264615;28;20491;-71
2023/07/26 09:10:24;;;;;;;1.05;0.80;;;;;;;18.30;64.02;100873.84;6279643;28;20265;-71
2023/07/26 09:13:53;;;;;;;2.17;0.88;;;;;;;18.58;63.18;100882.28;6317037;28;20234;-70
2023/07/26 09:17:14;;;;;;;0.90;0.77;;;;;;;19.08;62.01;100875.03;6313090;27;20230;-70
2023/07/26 09:20:36;;;;;;;0.90;0.90;;;;;;;18.93;62.15;100876.91;6321798;28;20233;-70
2023/07/26 09:23:59;;;;;;;0.70;0.70;;;;;;;18.77;61.47;100888.06;6322560;28;20250;-71
2023/07/26 09:27:21;;;;;;;0.95;0.82;;;;;;;18.48;61.20;100887.19;6343173;27;20622;-68
2023/07/26 09:30:45;;;;;;;1.00;0.93;;;;;;;18.76;61.90;100877.28;6334273;27;20230;-68
2023/07/26 09:38:48;;;;;;;1.25;1.15;;;;;;;19.56;62.01;100878.13;6312106;28;20953;-65
2023/07/26 09:42:09;;;;;;;1.58;0.80;;;;;;;19.39;59.63;100877.50;6313744;27;20226;-66
2023/07/26 09:45:31;;;;;;;1.52;0.88;;;;;;;19.03;61.50;100879.34;6312006;28;20313;-65
2023/07/26 09:49:02;;;;;;;3.35;1.08;;;;;;;19.23;61.07;100876.88;6310152;27;20230;-66
2023/07/26 09:52:23;;;;;;;0.90;0.90;;;;;;;19.60;61.54;100882.16;6302367;28;20229;-66
2023/07/26 09:55:44;;;;;;;1.02;0.90;;;;;;;19.52;59.58;100872.19;6311323;28;20226;-67
2023/07/26 09:59:09;;;;;;;1.13;0.75;;;;;;;20.09;58.34;100863.88;6315967;27;20226;-65
2023/07/26 10:02:31;;;;;;;0.50;0.45;;;;;;;19.41;56.81;100875.44;6306437;27;20230;-66
2023/07/26 10:05:54;;;;;;;1.02;0.60;;;;;;;19.43;57.12;100872.50;6301490;27;20330;-67
2023/07/26 10:09:16;;;;;;;1.02;1.00;;;;;;;19.90;57.23;100876.34;6324980;27;20524;-65
2023/07/26 10:12:39;;;;;;;1.48;0.88;;;;;;;19.90;57.18;100872.78;6322300;27;20241;-68
2023/07/26 10:16:01;;;;;;;1.00;1.00;;;;;;;19.81;57.55;100873.97;6318143;27;20226;-66
2023/07/26 10:19:25;;;;;;;0.50;0.50;;;;;;;19.47;56.76;100873.81;6300223;28;20279;-70
2023/07/26 10:22:48;;;;;;;0.63;0.50;;;;;;;19.73;57.04;100863.16;6304083;27;20312;-68
2023/07/26 10:26:11;;;;;;;0.90;0.77;;;;;;;20.32;56.73;100858.19;6313153;27;21015;-69
2023/07/26 10:29:32;;;;;;;1.55;0.90;;;;;;;19.77;56.81;100857.09;6295761;27;20226;-69
2023/07/26 10:32:53;;;;;;;1.52;1.02;;;;;;;19.74;57.57;100873.03;6319115;27;20230;-69
2023/07/26 10:36:15;;;;;;;1.10;0.82;;;;;;;19.89;56.90;100861.00;6323141;27;20237;-69
2023/07/26 10:39:37;;;;;;;1.73;1.10;;;;;;;19.62;56.71;100869.13;6317939;27;20647;-70
2023/07/26 10:43:17;;;;;;;0.90;0.80;;;;;;;19.94;56.65;100863.16;6263301;27;20255;-73
2023/07/26 10:46:49;;;;;;;1.02;0.60;;;;;;;19.91;57.35;100871.72;6307989;28;20605;-69
2023/07/26 10:50:10;;;;;;;0.82;0.70;;;;;;;19.09;58.11;100867.66;6305066;28;20230;-67
2023/07/26 10:53:36;;;;;;;1.30;1.17;;;;;;;19.16;58.57;100874.06;6296047;28;20235;-68
2023/07/26 10:57:15;;;;;;;2.05;1.17;;;;;;;19.34;59.20;100870.94;6313052;28;20226;-70
2023/07/26 11:00:37;;;;;;;2.63;1.45;;;;;;;19.56;58.92;100862.56;6298362;27;20253;-67
2023/07/26 11:03:58;;;;;;;0.90;0.80;;;;;;;19.76;57.84;100873.69;6300712;28;20234;-68
2023/07/26 11:07:19;;;;;;;1.08;0.75;;;;;;;20.16;56.27;100859.31;6327412;27;20606;-68
2023/07/26 11:10:51;;;;;;;1.65;0.63;;;;;;;20.48;55.50;100853.28;6315255;28;20855;-68
2023/07/26 11:14:20;;;;;;;1.02;0.90;;;;;;;20.53;55.28;100845.28;6315760;28;20222;-68
2023/07/26 11:17:42;;;;;;;0.80;0.80;;;;;;;20.67;55.89;100857.19;6298461;28;20226;-69
2023/07/26 11:21:03;;;;;;;1.55;1.45;;;;;;;19.91;56.27;100858.06;6308304;28;20230;-67
2023/07/26 11:24:30;;;;;;;1.00;0.88;;;;;;;20.38;55.80;100852.75;6308566;28;20250;-68
2023/07/26 11:27:50;;;;;;;1.10;0.95;;;;;;;20.53;55.78;100845.28;6311825;27;20497;-68
2023/07/26 11:31:19;;;;;;;0.77;0.73;;;;;;;20.95;55.01;100837.91;6305888;28;20580;-66
2023/07/26 11:34:40;;;;;;;3.58;0.98;;;;;;;21.41;54.07;100834.31;6312176;27;20614;-67
2023/07/26 11:38:01;;;;;;;1.13;1.02;;;;;;;21.12;53.90;100837.38;6306420;27;20248;-68
2023/07/26 11:41:22;;;;;;;2.60;1.00;;;;;;;21.05;54.75;100852.13;6323184;27;20237;-69
2023/07/26 11:44:43;;;;;;;1.13;0.90;;;;;;;21.31;53.65;100844.84;6318602;28;20748;-70
2023/07/26 11:48:06;;;;;;;1.70;0.98;;;;;;;21.02;53.67;100845.16;6332126;27;20324;-69
2023/07/26 11:51:31;;;;;;;0.57;0.57;;;;;;;21.67;52.42;100854.63;6307986;27;20356;-69
2023/07/26 11:54:56;;;;;;;1.05;0.95;;;;;;;21.41;52.59;100855.41;6314442;27;20320;-68
2023/07/26 11:58:17;;;;;;;0.63;0.63;;;;;;;20.73;53.67;100863.75;6324004;27;20607;-68
2023/07/26 12:01:38;;;;;;;1.77;1.65;;;;;;;20.84;55.03;100868.66;6308626;27;20856;-70
2023/07/26 12:05:18;;;;;;;2.63;0.98;;;;;;;20.38;58.06;100877.41;6300400;27;20234;-68
2023/07/26 12:08:38;;;;;;;1.20;1.10;;;;;;;19.84;61.03;100888.09;6299388;27;20231;-69
2023/07/26 12:12:01;;;;;;;1.92;1.17;;;;;;;19.53;62.88;100908.56;6321809;27;20230;-68
2023/07/26 12:15:22;;;;;;;1.52;1.02;;;;;;;19.06;64.87;100912.63;6306060;27;20225;-68
2023/07/26 12:18:50;;;;;;;2.67;1.27;;;;;;;19.62;66.59;100905.53;6322557;27;20556;-68
2023/07/26 12:22:13;;;;;;;1.60;1.25;;;;;;;20.35;64.59;100909.84;6323659;27;20233;-69
2023/07/26 12:25:36;;;;;;;1.42;1.33;;;;;;;21.13;60.76;100901.31;6318532;27;20250;-68
2023/07/26 12:28:58;;;;;;;0.85;0.75;;;;;;;21.58;59.45;100906.13;6315460;27;20234;-70
2023/07/26 12:32:19;;;;;;;1.00;0.98;;;;;;;21.01;60.10;100911.09;6312022;27;20231;-69
2023/07/26 12:35:44;;;;;;;1.17;1.08;;;;;;;20.15;59.62;100903.31;6308658;28;20253;-69
2023/07/26 12:39:07;;;;;;;0.98;0.90;;;;;;;20.78;58.35;100905.91;6311160;27;20502;-68
2023/07/26 12:42:29;;;;;;;0.82;0.82;;;;;;;20.89;58.59;100915.47;6312251;27;20583;-68
2023/07/26 12:45:51;;;;;;;1.00;0.90;;;;;;;19.72;60.28;100933.44;6310779;28;20234;-67
2023/07/26 12:49:11;;;;;;;1.33;1.23;;;;;;;19.57;62.67;100923.56;6305533;27;20309;-67
2023/07/26 12:52:37;;;;;;;1.85;0.73;;;;;;;19.13;63.68;100934.56;6290754;28;20543;-68
2023/07/26 12:55:59;;;;;;;1.13;1.02;;;;;;;19.05;65.83;100930.03;6311764;28;20234;-68
2023/07/26 12:59:20;;;;;;;1.20;1.10;;;;;;;21.16;63.49;100933.78;6291835;27;20580;-67
2023/07/26 13:02:41;;;;;;;1.50;1.20;;;;;;;21.60;61.67;100925.09;6290081;27;20229;-67
2023/07/26 13:06:04;;;;;;;0.70;0.70;;;;;;;25.28;53.94;100918.72;6312020;27;20226;-69
2023/07/26 13:09:25;;;;;;;1.00;1.00;;;;;;;24.29;52.99;100921.59;6308417;28;20229;-71
2023/07/26 13:12:47;;;;;;;0.80;0.65;;;;;;;24.45;50.45;100918.28;6322795;27;20229;-69
2023/07/26 13:16:08;;;;;;;0.50;0.50;;;;;;;25.00;48.95;100927.53;6321219;27;20229;-69
2023/07/26 13:19:29;;;;;;;0.65;0.60;;;;;;;25.36;47.54;100924.78;6322810;27;20241;-68
2023/07/26 13:22:50;;;;;;;0.88;0.77;;;;;;;26.93;46.13;100921.53;6326718;27;20229;-69
2023/07/26 13:26:11;;;;;;;0.95;0.95;;;;;;;27.30;43.95;100917.34;6314496;28;20222;-70
2023/07/26 13:29:33;;;;;;;1.15;0.95;;;;;;;24.64;46.93;100915.56;6310941;27;20223;-68
2023/07/26 13:32:54;;;;;;;2.78;0.75;;;;;;;23.82;49.25;100919.38;6315792;28;20745;-69
2023/07/26 13:36:17;;;;;;;2.20;0.73;;;;;;;23.35;50.24;100917.91;6318666;28;20230;-69
2023/07/26 13:39:38;;;;;;;1.00;1.00;;;;;;;24.52;49.17;100909.94;6323447;27;20233;-68
2023/07/26 13:43:00;;;;;;;2.20;0.70;;;;;;;24.58;47.77;100914.56;6322155;28;20230;-68
2023/07/26 13:46:22;;;;;;;0.98;0.90;;;;;;;23.08;50.67;100909.94;6314487;27;20222;-68
2023/07/26 13:49:43;;;;;;;1.17;0.77;;;;;;;22.47;54.51;100914.88;6316036;27;20221;-69
2023/07/26 13:53:04;;;;;;;1.30;1.08;;;;;;;24.46;51.03;100919.97;6314531;28;20662;-69
2023/07/26 13:56:25;;;;;;;2.13;0.68;;;;;;;23.22;51.49;100917.09;6303710;27;20237;-75
2023/07/26 13:59:45;;;;;;;1.10;0.90;;;;;;;23.09;52.03;100911.66;6323145;27;20230;-78
2023/07/26 14:03:08;;;;;;;0.70;0.70;;;;;;;22.55;52.81;100910.03;6311397;27;20313;-81
2023/07/26 14:06:29;;;;;;;2.33;1.08;;;;;;;23.04;52.44;100915.88;6314258;28;20230;-68
2023/07/26 14:09:50;;;;;;;1.90;1.05;;;;;;;22.53;53.67;100916.81;6310834;28;20597;-73
2023/07/26 14:13:11;;;;;;;0.50;0.50;;;;;;;21.20;53.56;100916.72;6319170;27;20222;-70
2023/07/26 14:16:32;;;;;;;1.30;0.98;;;;;;;21.20;56.05;100926.84;6305882;27;20230;-68
2023/07/26 14:19:55;;;;;;;3.80;1.15;;;;;;;21.37;54.89;100936.44;6322551;27;20256;-68
2023/07/26 14:23:16;;;;;;;1.05;0.95;;;;;;;21.44;55.50;100945.53;6332508;27;20234;-73
2023/07/26 14:26:36;;;;;;;1.13;0.90;;;;;;;21.55;55.06;100927.63;6317684;28;20230;-75
2023/07/26 14:29:57;;;;;;;1.05;0.82;;;;;;;22.10;54.70;100933.69;6316801;28;20237;-72
2023/07/26 14:33:19;;;;;;;1.20;0.80;;;;;;;21.66;55.11;100938.84;6307203;28;20241;-75
2023/07/26 14:36:41;;;;;;;0.80;0.80;;;;;;;21.28;55.79;100938.50;6277797;28;20236;-76
2023/07/26 14:40:02;;;;;;;0.88;0.88;;;;;;;21.45;56.46;100944.47;6299359;27;20324;-77
2023/07/26 14:43:22;;;;;;;1.30;1.17;;;;;;;21.13;57.56;100946.00;6309155;28;20226;-81
2023/07/26 14:46:43;;;;;;;1.10;0.80;;;;;;;20.75;58.86;100960.28;6292521;27;20222;-68
2023/07/26 14:50:05;;;;;;;3.15;1.90;;;;;;;20.23;59.91;100949.75;6312091;27;20215;-69
2023/07/26 14:53:27;;;;;;;0.90;0.90;;;;;;;19.76;60.53;100944.81;6336205;27;20237;-69
2023/07/26 14:56:48;;;;;;;1.88;0.90;;;;;;;19.35;61.44;100952.78;6313629;27;20269;-69
2023/07/26 15:00:11;;;;;;;1.73;1.63;;;;;;;19.65;61.76;100959.03;6320173;27;20763;-68
2023/07/26 15:03:32;;;;;;;0.90;0.90;;;;;;;19.56;61.63;100958.28;6283908;27;20344;-67
2023/07/26 15:06:52;;;;;;;1.30;1.00;;;;;;;19.27;61.57;100950.13;6310663;27;20253;-67
2023/07/26 15:10:15;;;;;;;1.35;1.13;;;;;;;19.51;61.78;100954.41;6298294;28;20670;-68
2023/07/26 15:13:36;;;;;;;1.02;0.93;;;;;;;19.60;61.92;100956.88;6303426;28;20332;-68
2023/07/26 15:16:56;;;;;;;0.93;0.90;;;;;;;19.44;62.84;100951.59;6304438;27;20229;-68
2023/07/26 15:20:17;;;;;;;0.98;0.88;;;;;;;19.38;65.02;100965.22;6316401;28;20234;-70
2023/07/26 15:23:38;;;;;;;4.00;2.28;;;;;;;19.13;67.18;100970.94;6300258;27;20222;-67
2023/07/26 15:27:01;;;;;;;1.38;1.17;;;;;;;18.66;69.19;100973.19;6303362;28;20252;-68
2023/07/26 15:30:22;;;;;;;1.15;0.95;;;;;;;18.63;70.44;100987.19;6314725;28;20242;-68
2023/07/26 15:33:42;;;;;;;1.55;1.20;;;;;;;18.54;71.56;100976.56;6302120;27;20222;-69
2023/07/26 15:37:04;;;;;;;2.90;2.70;;;;;;;18.43;72.30;100976.94;6326367;27;20230;-68
2023/07/26 15:40:24;;;;;;;1.27;1.08;;;;;;;18.41;73.12;100979.88;6316654;27;20224;-68
2023/07/26 15:43:49;;;;;;;1.90;1.30;;;;;;;18.37;73.14;100978.53;6333170;27;20225;-68